Latest Weather Observations for Richmond

IDN60901

Issued at 10:21 pm EST Wednesday 6 May 2015 (issued every 10 minutes, with the page automatically refreshed every 10 minutes)

About weather observations | Map of Sydney area stations | Latest observations for Sydney area | Other Formats
Station Details ID: 067105 Name: RICHMOND RAAF Lat: -33.60 Lon: 150.78 Height: 19.0 m
Data from the previous 72 hours. | See also: Recent months at Richmond
Date/Time
EST
Tmp

°C
App
Tmp
°C
Dew
Point
°C
Rel
Hum
%
Delta-T

°C
Wind Press
QNH
hPa
Press
MSL
hPa
Rain
since
9 am
mm
Dir
 
Spd
km/h
Gust
km/h
Spd
kts
Gust
kts
06/10:00pm 10.3 7.1 4.9 69 2.4 NW 11 13 6 7 1017.6 1017.6 0.0
06/09:30pm 11.3 8.5 5.2 66 2.8 WNW 9 9 5 5 1017.4 1017.4 0.0
06/09:00pm 11.5 8.3 5.2 65 2.9 NW 11 13 6 7 1017.2 1017.2 0.0
06/08:30pm 12.1 8.6 5.3 63 3.1 NNW 13 15 7 8 1017.0 1017.0 0.0
06/08:00pm 13.4 9.1 5.1 57 3.9 WNW 17 20 9 11 1016.7 1016.7 0.0
06/07:30pm 13.6 9.3 5.3 57 3.9 WNW 17 20 9 11 1016.4 1016.4 0.0
06/07:00pm 13.8 9.9 5.2 56 4.0 WNW 15 19 8 10 1016.1 1016.1 0.0
06/06:30pm 14.3 10.9 5.9 57 4.0 WNW 13 19 7 10 1015.6 1015.6 0.0
06/05:30pm 15.9 12.3 4.9 48 5.2 W 13 17 7 9 1014.5 1014.5 0.0
06/05:00pm 17.4 13.0 4.7 43 6.0 W 17 24 9 13 1014.1 1014.1 0.0
06/04:30pm 18.4 14.6 5.9 44 6.1 W 15 26 8 14 1013.7 1013.7 0.0
06/04:00pm 19.5 14.5 4.4 37 7.3 W 20 28 11 15 1013.4 1013.4 0.0
06/03:30pm 20.0 14.9 4.1 35 7.6 W 20 32 11 17 1013.2 1013.2 0.0
06/03:00pm 20.2 15.3 3.9 34 7.8 WSW 19 26 10 14 1013.0 1013.0 0.0
06/02:30pm 20.4 15.6 4.4 35 7.7 WNW 19 28 10 15 1012.9 1012.9 0.0
06/02:00pm 20.3 15.2 3.9 34 7.8 WNW 20 30 11 16 1012.9 1012.9 0.0
06/01:30pm 19.9 15.0 4.0 35 7.6 WNW 19 28 10 15 1012.9 1012.9 0.0
06/01:00pm 19.6 14.4 3.3 34 7.7 W 20 32 11 17 1013.0 1013.0 0.0
06/12:30pm 19.1 14.5 3.7 36 7.3 W 17 24 9 13 1013.4 1013.4 0.0
06/12:00pm 19.1 14.3 4.8 39 6.9 W 19 24 10 13 1013.9 1013.9 0.0
06/11:30am 18.3 12.6 3.0 36 7.1 W 22 32 12 17 1014.4 1014.4 0.0
06/11:00am 18.0 13.9 4.6 41 6.4 W 15 20 8 11 1014.7 1014.7 0.0
06/10:30am 17.4 13.5 5.4 45 5.8 W 15 22 8 12 1014.9 1014.9 0.0
06/10:00am 16.8 11.7 3.1 40 6.3 W 19 28 10 15 1014.9 1014.9 0.0
06/09:30am 15.8 11.4 2.9 42 5.8 NW 15 22 8 12 1014.9 1014.9 0.0
06/08:30am 14.9 11.2 4.6 50 4.8 NW 13 19 7 10 1014.7 1014.7 0.2
06/08:00am 14.0 10.0 4.9 54 4.2 NW 15 19 8 10 1014.4 1014.4 0.2
06/07:30am 12.3 9.3 4.3 58 3.6 NW 9 11 5 6 1014.0 1014.0 0.2
06/07:00am 10.9 7.6 4.4 64 2.9 NNW 11 13 6 7 1013.6 1013.6 0.2
06/06:30am 12.0 8.4 3.0 54 4.0 NW 11 13 6 7 1013.1 1013.1 0.2
06/05:30am 12.4 8.6 3.9 56 3.8 W 13 19 7 10 1012.7 1012.7 0.2
06/05:00am 12.8 10.4 4.5 57 3.8 SW 6 9 3 5 1012.2 1012.2 0.2
06/04:30am 12.6 9.4 5.1 60 3.5 NNW 11 20 6 11 1011.8 1011.8 0.2
06/04:00am 13.0 9.8 5.2 59 3.6 SE 11 15 6 8 1011.6 1011.6 0.2
06/03:30am 14.3 9.1 5.4 55 4.2 W 22 32 12 17 1010.7 1010.7 0.2
06/03:19am 13.2 8.2 6.3 63 3.3 W 22 32 12 17 1010.5 1010.5 0.2
06/03:00am 13.0 10.4 6.1 63 3.3 W 9 11 5 6 1011.0 1011.0 0.2
06/02:30am 14.1 11.1 6.0 58 3.9 E 11 15 6 8 1010.9 1010.9 0.2
06/02:00am 14.8 10.5 5.3 53 4.5 W 17 22 9 12 1010.6 1010.6 0.2
06/01:30am 16.0 11.6 4.7 47 5.3 NW 17 24 9 13 1010.8 1010.8 0.2
06/01:00am 16.1 12.5 4.8 47 5.3 NW 13 20 7 11 1010.7 1010.7 0.2
06/12:30am 17.0 12.2 4.7 44 5.8 WNW 19 26 10 14 1010.4 1010.4 0.2
 
Date/Time
EST
Tmp

°C
App
Tmp
°C
Dew
Point
°C
Rel
Hum
%
Delta-T

°C
Wind Press
QNH
hPa
Press
MSL
hPa
Rain
since
9 am
mm
Dir
 
Spd
km/h
Gust
km/h
Spd
kts
Gust
kts
05/11:30pm 17.0 12.6 5.0 45 5.7 WNW 17 22 9 12 1010.1 1010.1 0.2
05/11:00pm 19.0 12.8 4.4 38 7.0 W 26 35 14 19 1009.7 1009.7 0.2
05/10:30pm 18.8 14.6 7.3 47 5.8 W 19 28 10 15 1009.2 1009.2 0.2
05/10:00pm 19.7 15.5 8.4 48 5.9 WSW 20 30 11 16 1008.8 1008.8 0.2
05/09:30pm 18.8 16.2 10.6 59 4.4 W 15 22 8 12 1008.4 1008.4 0.2
05/09:00pm 17.8 15.4 11.4 66 3.5 W 15 19 8 10 1007.8 1007.8 0.2
05/08:30pm 18.9 15.9 10.7 59 4.4 WNW 17 20 9 11 1007.2 1007.2 0.2
05/08:00pm 19.1 17.1 11.4 61 4.2 NW 13 17 7 9 1006.6 1006.6 0.2
05/07:30pm 19.4 17.6 10.9 58 4.6 NNE 11 15 6 8 1005.8 1005.8 0.2
05/07:00pm 19.9 18.2 11.1 57 4.8 NNE 11 15 6 8 1005.4 1005.4 0.2
05/06:30pm 20.5 19.1 10.9 54 5.3 ENE 9 11 5 6 1005.1 1005.1 0.2
05/06:00pm 20.9 19.7 11.5 55 5.2 N 9 13 5 7 1004.7 1004.7 0.2
05/05:30pm 21.5 19.8 11.2 52 5.7 N 11 13 6 7 1004.4 1004.4 0.2
05/05:00pm 23.1 21.4 11.2 47 6.7 NNW 11 15 6 8 1004.0 1004.0 0.2
05/04:30pm 24.7 22.2 10.9 42 7.7 N 15 22 8 12 1003.6 1003.6 0.2
05/04:00pm 25.9 21.7 9.7 36 9.0 NNW 22 33 12 18 1003.8 1003.8 0.2
05/03:30pm 26.1 21.7 10.3 37 8.8 NNW 24 35 13 19 1003.9 1003.9 0.2
05/03:00pm 26.5 21.7 8.9 33 9.6 NNW 24 35 13 19 1003.9 1003.9 0.2
05/02:30pm 26.5 20.9 8.9 33 9.6 NNW 28 35 15 19 1004.1 1004.1 0.2
05/02:00pm 26.5 21.3 8.9 33 9.6 NNW 26 35 14 19 1004.3 1004.3 0.2
05/01:30pm 26.7 22.7 10.4 36 9.1 NNW 22 28 12 15 1004.5 1004.5 0.2
05/01:00pm 26.5 22.4 8.0 31 10.0 NW 19 24 10 13 1005.0 1005.0 0.2
05/12:30pm 26.6 24.1 11.1 38 8.8 NW 15 35 8 19 1005.7 1005.7 0.2
05/12:00pm 26.1 23.8 12.9 44 7.7 NNW 17 24 9 13 1006.2 1006.2 0.2
05/11:30am 25.4 23.1 11.6 42 7.8 NNW 15 30 8 16 1006.6 1006.6 0.2
05/11:00am 24.6 23.9 14.4 53 6.1 NNE 11 17 6 9 1007.2 1007.2 0.2
05/10:30am 23.6 22.6 15.6 61 4.8 NNE 15 20 8 11 1007.8 1007.8 0.2
05/10:00am 22.2 20.7 16.2 69 3.6 N 19 30 10 16 1008.1 1008.1 0.0
05/09:30am 21.2 19.3 15.7 71 3.3 N 20 28 11 15 1008.2 1008.2 0.0
05/09:00am 19.9 18.1 15.5 76 2.6 N 19 28 10 15 1008.3 1008.3 0.0
05/08:30am 17.0 17.8 15.9 93 0.6 NE 6 9 3 5 1008.6 1008.6 0.0
05/08:04am 15.3 16.6 15.1 99 0.1 N 2 7 1 4 1008.9 1008.9 0.0
05/08:00am 15.0 16.6 14.8 99 0.1 CALM 0 7 0 4 1008.9 1008.9 0.0
05/07:50am 14.9 16.0 14.7 99 0.1 WNW 2 6 1 3 1008.9 1008.9 0.0
05/07:37am 14.5 15.5 14.3 99 0.1 W 2 9 1 5 1009.0 1009.0 0.0
05/07:30am 13.9 15.1 13.7 99 0.1 CALM 0 0 0 0 1009.1 1009.1 0.0
05/07:00am 13.0 13.5 12.8 99 0.1 SW 2 6 1 3 1009.2 1009.2 0.0
05/06:30am 12.8 12.9 12.6 99 0.1 SW 4 7 2 4 1009.0 1009.0 0.0
05/06:00am 12.9 13.4 12.7 99 0.1 NNE 2 11 1 6 1009.3 1009.3 0.0
05/05:30am 13.8 14.9 13.6 99 0.1 CALM 0 0 0 0 1009.7 1009.7 0.0
05/05:00am 14.0 15.2 13.8 99 0.1 CALM 0 0 0 0 1009.8 1009.8 0.0
05/04:30am 13.9 15.1 13.7 99 0.1 CALM 0 0 0 0 1010.1 1010.1 0.0
05/04:00am 14.0 14.4 13.8 99 0.1 NNE 4 6 2 3 1010.1 1010.1 0.0
05/03:30am 14.4 14.6 14.2 99 0.1 N 6 7 3 4 1010.5 1010.5 0.0
05/03:00am 14.8 15.0 14.6 99 0.1 NE 7 11 4 6 1010.7 1010.7 0.0
05/02:30am 14.9 16.4 14.7 99 0.1 CALM 0 0 0 0 1011.3 1011.3 0.0
05/02:00am 14.8 16.3 14.6 99 0.1 CALM 0 0 0 0 1011.6 1011.6 0.0
05/01:30am 14.8 16.3 14.6 99 0.1 CALM 0 0 0 0 1011.9 1011.9 0.0
05/01:00am 15.0 16.6 14.8 99 0.1 CALM 0 0 0 0 1012.3 1012.3 0.0
05/12:30am 14.7 16.1 14.4 98 0.2 CALM 0 0 0 0 1012.5 1012.5 0.0
05/12:00am 14.4 15.7 14.1 98 0.2 CALM 0 0 0 0 1012.8 1012.8 0.0
 
Date/Time
EST
Tmp

°C
App
Tmp
°C
Dew
Point
°C
Rel
Hum
%
Delta-T

°C
Wind Press
QNH
hPa
Press
MSL
hPa
Rain
since
9 am
mm
Dir
 
Spd
km/h
Gust
km/h
Spd
kts
Gust
kts
04/11:46pm 14.3 15.6 14.0 98 0.2 CALM 0 0 0 0 1012.9 1012.9 0.0
04/11:43pm 14.3 15.6 14.0 98 0.2 CALM 0 0 0 0 1013.0 1013.0 0.0
04/11:36pm 14.1 15.3 13.8 98 0.2 CALM 0 0 0 0 1012.9 1012.9 0.0
04/11:30pm 14.5 15.8 14.2 98 0.2 CALM 0 0 0 0 1013.0 1013.0 0.0
04/11:27pm 14.4 15.7 14.1 98 0.2 CALM 0 0 0 0 1013.0 1013.0 0.0
04/11:01pm 14.7 16.1 14.4 98 0.2 CALM 0 0 0 0 1013.3 1013.3 0.0
04/11:00pm 14.7 16.1 14.4 98 0.2 CALM 0 0 0 0 1013.3 1013.3 0.0
04/10:41pm 15.3 16.9 15.0 98 0.2 CALM 0 0 0 0 1013.5 1013.5 0.0
04/10:30pm 15.4 17.1 15.1 98 0.2 CALM 0 0 0 0 1013.6 1013.6 0.0
04/10:10pm 15.3 16.9 15.0 98 0.2 CALM 0 0 0 0 1013.8 1013.8 0.0
04/10:02pm 15.2 16.8 14.9 98 0.2 CALM 0 6 0 3 1013.8 1013.8 0.0
04/10:00pm 15.5 16.8 15.2 98 0.2 WSW 2 6 1 3 1013.9 1013.9 0.0
04/09:57pm 15.4 16.7 15.1 98 0.2 WSW 2 6 1 3 1013.9 1013.9 0.0
04/09:45pm 15.6 16.6 15.3 98 0.2 WSW 4 7 2 4 1013.9 1013.9 0.0
04/09:32pm 15.2 16.7 14.7 97 0.3 CALM 0 0 0 0 1014.0 1014.0 0.0
04/09:30pm 15.2 16.7 14.7 97 0.3 CALM 0 0 0 0 1014.0 1014.0 0.0
04/09:00pm 15.5 16.7 14.9 96 0.3 NNW 2 6 1 3 1013.8 1013.8 0.0
04/08:53pm 15.8 16.4 15.2 96 0.3 NNW 6 7 3 4 1013.8 1013.8 0.0
04/08:42pm 16.2 16.9 15.7 97 0.3 N 6 7 3 4 1013.8 1013.8 0.0
04/08:30pm 16.4 18.3 15.8 96 0.4 CALM 0 0 0 0 1013.7 1013.7 0.0
04/08:28pm 16.5 18.5 15.9 96 0.4 CALM 0 0 0 0 1013.7 1013.7 0.0
04/08:06pm 16.5 18.3 15.4 93 0.6 CALM 0 0 0 0 1013.6 1013.6 0.0
04/08:00pm 17.1 19.2 16.3 95 0.5 CALM 0 0 0 0 1013.6 1013.6 0.0
04/07:30pm 17.2 18.0 15.9 92 0.8 N 6 7 3 4 1013.6 1013.6 0.0
04/07:00pm 17.8 18.8 16.3 91 0.9 NE 6 6 3 3 1013.6 1013.6 0.0
04/06:30pm 18.2 19.0 16.4 89 1.1 NE 7 9 4 5 1013.4 1013.4 0.0
04/06:00pm 18.7 19.0 16.1 85 1.5 ENE 9 11 5 6 1013.2 1013.2 0.0
04/05:30pm 19.3 19.3 16.2 82 1.9 ENE 11 13 6 7 1013.2 1013.2 0.0
04/05:00pm 20.3 20.7 16.3 78 2.4 ENE 9 13 5 7 1013.1 1013.1 0.0
04/04:30pm 21.5 21.6 16.5 73 3.0 ENE 11 13 6 7 1012.9 1012.9 0.0
04/04:00pm 22.2 22.5 16.0 68 3.7 NE 9 13 5 7 1013.0 1013.0 0.0
04/03:30pm 22.1 22.5 16.4 70 3.5 NNE 9 13 5 7 1013.1 1013.1 0.0
04/03:00pm 22.0 22.6 15.8 68 3.7 NE 7 9 4 5 1013.1 1013.1 0.0
04/02:30pm 22.3 22.9 15.9 67 3.9 NNE 7 11 4 6 1013.2 1013.2 0.0
04/02:00pm 22.2 22.6 15.3 65 4.1 ENE 7 11 4 6 1013.1 1013.1 0.0
04/01:30pm 21.9 22.2 16.0 69 3.6 ESE 9 15 5 8 1013.5 1013.5 0.0
04/01:00pm 22.3 23.2 15.2 64 4.2 SSE 4 7 2 4 1013.8 1013.8 0.0
04/12:30pm 21.8 22.4 15.4 67 3.8 S 6 11 3 6 1014.3 1014.3 0.0
04/12:00pm 21.6 22.3 15.7 69 3.5 WSW 6 11 3 6 1014.8 1014.8 0.0
04/11:30am 21.7 21.8 15.5 68 3.7 SSW 9 13 5 7 1015.2 1015.2 0.0
04/11:00am 21.0 20.9 14.9 68 3.6 SW 9 15 5 8 1015.7 1015.7 0.0
04/10:30am 20.7 20.9 14.6 68 3.6 S 7 13 4 7 1015.8 1015.8 0.0
04/10:00am 20.5 22.2 15.3 72 3.1 CALM 0 6 0 3 1016.1 1016.1 0.0
04/09:30am 19.6 20.8 15.0 75 2.7 NW 2 7 1 4 1016.2 1016.2 0.0
04/09:00am 18.9 19.2 15.0 78 2.3 N 7 9 4 5 1016.3 1016.3 0.0
04/08:30am 18.6 19.5 15.1 80 2.0 NE 4 6 2 3 1016.4 1016.4 0.0
04/08:00am 18.1 18.6 15.5 85 1.5 NNE 7 9 4 5 1016.2 1016.2 0.0
04/07:30am 17.7 17.7 15.1 85 1.5 ENE 9 11 5 6 1015.9 1015.9 0.0
04/07:00am 17.3 18.0 15.5 89 1.1 NE 6 7 3 4 1015.5 1015.5 0.0
04/06:30am 17.3 19.1 15.5 89 1.1 CALM 0 0 0 0 1015.2 1015.2 0.0
04/06:00am 17.5 19.1 15.0 85 1.5 CALM 0 0 0 0 1015.1 1015.1 0.0
04/05:30am 17.8 18.6 14.7 82 1.8 S 4 6 2 3 1015.1 1015.1 0.0
04/05:00am 17.9 18.0 14.4 80 2.0 SW 7 7 4 4 1015.0 1015.0 0.0
04/04:30am 17.9 18.0 14.4 80 2.0 SW 7 11 4 6 1014.8 1014.8 0.0
04/04:00am 18.0 17.7 14.3 79 2.1 WSW 9 11 5 6 1014.5 1014.5 0.0
04/03:30am 18.0 17.4 14.5 80 2.0 WSW 11 13 6 7 1014.7 1014.7 0.0
04/03:00am 17.7 19.4 15.1 85 1.5 CALM 0 7 0 4 1014.9 1014.9 0.0
04/02:30am 17.8 19.4 14.9 83 1.7 CALM 0 0 0 0 1015.0 1015.0 0.0
04/02:00am 17.9 18.3 14.8 82 1.8 SSW 6 7 3 4 1015.0 1015.0 0.0
04/01:30am 18.1 17.9 14.6 80 2.0 SW 9 13 5 7 1015.1 1015.1 0.0
04/01:00am 18.2 17.9 14.3 78 2.2 SW 9 13 5 7 1015.3 1015.3 0.0
04/12:30am 18.3 17.9 14.2 77 2.4 SSW 9 11 5 6 1015.3 1015.3 0.0
04/12:00am 18.5 18.1 14.2 76 2.5 SSE 9 13 5 7 1015.3 1015.3 0.0
 
Date/Time
EST
Tmp

°C
App
Tmp
°C
Dew
Point
°C
Rel
Hum
%
Delta-T

°C
Wind Press
QNH
hPa
Press
MSL
hPa
Rain
since
9 am
mm
Dir
 
Spd
km/h
Gust
km/h
Spd
kts
Gust
kts
03/11:30pm 18.4 17.6 14.1 76 2.5 SE 11 13 6 7 1015.4 1015.4 0.0
03/11:00pm 18.5 18.1 14.2 76 2.5 SE 9 11 5 6 1015.3 1015.3 0.0
03/10:30pm 18.8 18.2 13.6 72 3.0 S 9 11 5 6 1015.5 1015.5 0.0

Latest Capital City Observations: Canberra | Sydney | Melbourne | Brisbane | Adelaide | Perth | Hobart | Darwin

Other Formats:

Comma delimited format used in spreadsheet applications
http://www.bom.gov.au/fwo/IDN60901/IDN60901.95753.axf

JavaScript Object Notation format (JSON) in row-major order
http://www.bom.gov.au/fwo/IDN60901/IDN60901.95753.json